sensor_id;sensor_type;location;lat;lon;timestamp;P1;durP1;ratioP1;P2;durP2;ratioP2
26540;SDS011;14206;50.202;10.948;2024-03-23T00:56:18;7.43;;;6.53;;
26540;SDS011;14206;50.202;10.948;2024-03-23T00:58:44;8.95;;;7.07;;
26540;SDS011;14206;50.202;10.948;2024-03-23T01:01:09;9.07;;;6.97;;
26540;SDS011;14206;50.202;10.948;2024-03-23T01:03:35;9.27;;;7.20;;
26540;SDS011;14206;50.202;10.948;2024-03-23T01:06:02;8.07;;;6.70;;
26540;SDS011;14206;50.202;10.948;2024-03-23T01:08:29;8.77;;;6.20;;
26540;SDS011;14206;50.202;10.948;2024-03-23T01:10:55;6.78;;;5.40;;
26540;SDS011;14206;50.202;10.948;2024-03-23T01:13:22;5.88;;;4.65;;
26540;SDS011;14206;50.202;10.948;2024-03-23T01:15:49;5.43;;;4.18;;
26540;SDS011;14206;50.202;10.948;2024-03-23T01:18:17;5.85;;;5.15;;
26540;SDS011;14206;50.202;10.948;2024-03-23T01:20:44;6.00;;;4.88;;
26540;SDS011;14206;50.202;10.948;2024-03-23T01:23:10;6.65;;;5.40;;
26540;SDS011;14206;50.202;10.948;2024-03-23T01:25:36;5.72;;;4.40;;
26540;SDS011;14206;50.202;10.948;2024-03-23T01:28:02;5.22;;;3.78;;
26540;SDS011;14206;50.202;10.948;2024-03-23T01:30:28;4.30;;;3.40;;
26540;SDS011;14206;50.202;10.948;2024-03-23T01:32:54;4.20;;;3.08;;
26540;SDS011;14206;50.202;10.948;2024-03-23T01:35:20;3.33;;;2.80;;
26540;SDS011;14206;50.202;10.948;2024-03-23T01:37:46;3.30;;;3.00;;
26540;SDS011;14206;50.202;10.948;2024-03-23T01:40:12;3.17;;;2.88;;
26540;SDS011;14206;50.202;10.948;2024-03-23T01:42:39;4.15;;;2.60;;
26540;SDS011;14206;50.202;10.948;2024-03-23T01:45:08;3.30;;;2.80;;
26540;SDS011;14206;50.202;10.948;2024-03-23T01:47:38;2.65;;;2.30;;
26540;SDS011;14206;50.202;10.948;2024-03-23T01:50:04;2.83;;;2.63;;
26540;SDS011;14206;50.202;10.948;2024-03-23T01:52:30;3.05;;;2.75;;
26540;SDS011;14206;50.202;10.948;2024-03-23T01:54:56;3.38;;;2.75;;
26540;SDS011;14206;50.202;10.948;2024-03-23T01:57:22;3.15;;;2.55;;
26540;SDS011;14206;50.202;10.948;2024-03-23T01:59:48;2.92;;;2.63;;
26540;SDS011;14206;50.202;10.948;2024-03-23T02:02:23;3.55;;;2.90;;
26540;SDS011;14206;50.202;10.948;2024-03-23T02:04:49;4.03;;;3.00;;
26540;SDS011;14206;50.202;10.948;2024-03-23T02:07:15;3.20;;;2.75;;
26540;SDS011;14206;50.202;10.948;2024-03-23T02:09:41;3.13;;;2.80;;
26540;SDS011;14206;50.202;10.948;2024-03-23T02:12:06;3.45;;;2.92;;
26540;SDS011;14206;50.202;10.948;2024-03-23T02:14:33;4.32;;;3.65;;
26540;SDS011;14206;50.202;10.948;2024-03-23T02:16:58;4.43;;;3.22;;
26540;SDS011;14206;50.202;10.948;2024-03-23T02:19:24;4.00;;;3.03;;
26540;SDS011;14206;50.202;10.948;2024-03-23T02:21:50;3.78;;;3.00;;
26540;SDS011;14206;50.202;10.948;2024-03-23T02:24:16;3.53;;;3.08;;
26540;SDS011;14206;50.202;10.948;2024-03-23T02:26:42;3.72;;;3.00;;
26540;SDS011;14206;50.202;10.948;2024-03-23T02:29:08;4.13;;;3.45;;
26540;SDS011;14206;50.202;10.948;2024-03-23T02:31:35;7.32;;;5.20;;
26540;SDS011;14206;50.202;10.948;2024-03-23T02:34:01;4.30;;;3.90;;
26540;SDS011;14206;50.202;10.948;2024-03-23T02:36:28;4.05;;;3.30;;
26540;SDS011;14206;50.202;10.948;2024-03-23T02:38:56;4.50;;;3.58;;
26540;SDS011;14206;50.202;10.948;2024-03-23T02:41:21;7.93;;;5.15;;
26540;SDS011;14206;50.202;10.948;2024-03-23T02:43:52;7.35;;;6.55;;
26540;SDS011;14206;50.202;10.948;2024-03-23T02:46:17;8.90;;;7.38;;
26540;SDS011;14206;50.202;10.948;2024-03-23T02:48:43;7.72;;;6.20;;
26540;SDS011;14206;50.202;10.948;2024-03-23T02:51:09;7.03;;;5.40;;
26540;SDS011;14206;50.202;10.948;2024-03-23T02:53:35;4.78;;;4.28;;
26540;SDS011;14206;50.202;10.948;2024-03-23T02:56:01;5.00;;;3.92;;
26540;SDS011;14206;50.202;10.948;2024-03-23T02:58:27;4.15;;;3.38;;
26540;SDS011;14206;50.202;10.948;2024-03-23T03:00:53;4.82;;;3.83;;
26540;SDS011;14206;50.202;10.948;2024-03-23T03:03:19;4.10;;;3.35;;
26540;SDS011;14206;50.202;10.948;2024-03-23T03:05:45;4.50;;;3.33;;
26540;SDS011;14206;50.202;10.948;2024-03-23T03:08:11;4.57;;;2.97;;
26540;SDS011;14206;50.202;10.948;2024-03-23T03:10:36;3.53;;;3.13;;
26540;SDS011;14206;50.202;10.948;2024-03-23T03:13:02;3.85;;;3.45;;
26540;SDS011;14206;50.202;10.948;2024-03-23T03:15:28;3.42;;;3.13;;
26540;SDS011;14206;50.202;10.948;2024-03-23T03:17:54;4.30;;;3.30;;
26540;SDS011;14206;50.202;10.948;2024-03-23T03:20:20;3.85;;;3.00;;
26540;SDS011;14206;50.202;10.948;2024-03-23T03:22:48;3.35;;;3.05;;
26540;SDS011;14206;50.202;10.948;2024-03-23T03:25:14;4.43;;;3.30;;
26540;SDS011;14206;50.202;10.948;2024-03-23T03:27:40;3.58;;;3.17;;
26540;SDS011;14206;50.202;10.948;2024-03-23T03:30:06;3.13;;;2.83;;
26540;SDS011;14206;50.202;10.948;2024-03-23T03:32:34;3.40;;;3.10;;
26540;SDS011;14206;50.202;10.948;2024-03-23T03:35:00;3.47;;;2.95;;
26540;SDS011;14206;50.202;10.948;2024-03-23T03:37:26;4.00;;;3.00;;
26540;SDS011;14206;50.202;10.948;2024-03-23T03:39:52;3.20;;;2.90;;
26540;SDS011;14206;50.202;10.948;2024-03-23T03:42:18;3.60;;;3.00;;
26540;SDS011;14206;50.202;10.948;2024-03-23T03:44:44;3.17;;;2.88;;
26540;SDS011;14206;50.202;10.948;2024-03-23T03:47:10;4.20;;;3.30;;
26540;SDS011;14206;50.202;10.948;2024-03-23T03:49:35;3.40;;;3.10;;
26540;SDS011;14206;50.202;10.948;2024-03-23T03:52:01;4.15;;;3.47;;
26540;SDS011;14206;50.202;10.948;2024-03-23T03:54:27;3.38;;;3.08;;
26540;SDS011;14206;50.202;10.948;2024-03-23T03:56:53;4.72;;;3.72;;
26540;SDS011;14206;50.202;10.948;2024-03-23T03:59:19;3.35;;;3.05;;
26540;SDS011;14206;50.202;10.948;2024-03-23T04:01:45;3.80;;;3.20;;
26540;SDS011;14206;50.202;10.948;2024-03-23T04:04:11;4.15;;;3.47;;
26540;SDS011;14206;50.202;10.948;2024-03-23T04:06:37;4.65;;;4.15;;
26540;SDS011;14206;50.202;10.948;2024-03-23T04:09:04;4.50;;;3.75;;
26540;SDS011;14206;50.202;10.948;2024-03-23T04:11:31;3.60;;;3.30;;
26540;SDS011;14206;50.202;10.948;2024-03-23T04:13:57;3.70;;;3.10;;
26540;SDS011;14206;50.202;10.948;2024-03-23T04:16:27;5.43;;;4.53;;
26540;SDS011;14206;50.202;10.948;2024-03-23T04:18:53;6.63;;;4.30;;
26540;SDS011;14206;50.202;10.948;2024-03-23T04:21:19;4.13;;;3.72;;
26540;SDS011;14206;50.202;10.948;2024-03-23T04:23:46;5.03;;;4.43;;
26540;SDS011;14206;50.202;10.948;2024-03-23T04:26:11;4.13;;;3.72;;
26540;SDS011;14206;50.202;10.948;2024-03-23T04:28:37;4.88;;;3.97;;
26540;SDS011;14206;50.202;10.948;2024-03-23T04:31:04;4.63;;;4.00;;
26540;SDS011;14206;50.202;10.948;2024-03-23T04:33:30;5.18;;;4.00;;
26540;SDS011;14206;50.202;10.948;2024-03-23T04:35:56;7.10;;;4.45;;
26540;SDS011;14206;50.202;10.948;2024-03-23T04:38:22;4.80;;;4.00;;
26540;SDS011;14206;50.202;10.948;2024-03-23T04:40:58;10.30;;;7.25;;
26540;SDS011;14206;50.202;10.948;2024-03-23T04:43:27;6.35;;;5.25;;
26540;SDS011;14206;50.202;10.948;2024-03-23T04:45:53;9.25;;;7.70;;
26540;SDS011;14206;50.202;10.948;2024-03-23T04:48:22;7.25;;;6.47;;
26540;SDS011;14206;50.202;10.948;2024-03-23T04:50:49;7.45;;;5.90;;
26540;SDS011;14206;50.202;10.948;2024-03-23T04:53:19;8.88;;;5.65;;
26540;SDS011;14206;50.202;10.948;2024-03-23T04:55:45;6.40;;;5.15;;
26540;SDS011;14206;50.202;10.948;2024-03-23T04:58:11;11.07;;;8.70;;
26540;SDS011;14206;50.202;10.948;2024-03-23T05:00:37;10.48;;;9.32;;
26540;SDS011;14206;50.202;10.948;2024-03-23T05:03:03;12.13;;;8.75;;
26540;SDS011;14206;50.202;10.948;2024-03-23T05:05:29;10.55;;;8.68;;
26540;SDS011;14206;50.202;10.948;2024-03-23T05:07:55;10.77;;;7.80;;
26540;SDS011;14206;50.202;10.948;2024-03-23T05:10:21;8.63;;;7.20;;
26540;SDS011;14206;50.202;10.948;2024-03-23T05:12:47;8.30;;;7.32;;
26540;SDS011;14206;50.202;10.948;2024-03-23T05:15:13;11.25;;;8.52;;
26540;SDS011;14206;50.202;10.948;2024-03-23T05:17:39;11.57;;;8.15;;
26540;SDS011;14206;50.202;10.948;2024-03-23T05:20:05;11.50;;;8.88;;
26540;SDS011;14206;50.202;10.948;2024-03-23T05:22:35;9.70;;;7.82;;
26540;SDS011;14206;50.202;10.948;2024-03-23T05:25:02;10.43;;;7.97;;
26540;SDS011;14206;50.202;10.948;2024-03-23T05:27:33;8.48;;;7.40;;
26540;SDS011;14206;50.202;10.948;2024-03-23T05:29:59;7.75;;;6.45;;
26540;SDS011;14206;50.202;10.948;2024-03-23T05:32:25;8.80;;;7.25;;
26540;SDS011;14206;50.202;10.948;2024-03-23T05:34:51;11.32;;;8.77;;
26540;SDS011;14206;50.202;10.948;2024-03-23T05:37:21;9.43;;;8.27;;
26540;SDS011;14206;50.202;10.948;2024-03-23T05:39:51;11.30;;;9.32;;
26540;SDS011;14206;50.202;10.948;2024-03-23T05:42:17;11.32;;;9.60;;
26540;SDS011;14206;50.202;10.948;2024-03-23T05:44:44;13.90;;;10.45;;
26540;SDS011;14206;50.202;10.948;2024-03-23T05:47:10;13.60;;;9.93;;
26540;SDS011;14206;50.202;10.948;2024-03-23T05:49:46;9.85;;;8.68;;
26540;SDS011;14206;50.202;10.948;2024-03-23T05:52:12;9.50;;;8.50;;
26540;SDS011;14206;50.202;10.948;2024-03-23T05:54:38;12.02;;;9.80;;
26540;SDS011;14206;50.202;10.948;2024-03-23T05:57:04;11.93;;;9.30;;
26540;SDS011;14206;50.202;10.948;2024-03-23T05:59:33;10.65;;;8.98;;
26540;SDS011;14206;50.202;10.948;2024-03-23T06:01:59;9.00;;;7.45;;
26540;SDS011;14206;50.202;10.948;2024-03-23T06:04:25;10.75;;;7.25;;
26540;SDS011;14206;50.202;10.948;2024-03-23T06:06:52;6.85;;;5.93;;
26540;SDS011;14206;50.202;10.948;2024-03-23T06:09:18;8.82;;;7.43;;
26540;SDS011;14206;50.202;10.948;2024-03-23T06:11:45;7.45;;;6.57;;
26540;SDS011;14206;50.202;10.948;2024-03-23T06:14:11;6.53;;;5.63;;
26540;SDS011;14206;50.202;10.948;2024-03-23T06:16:37;11.55;;;9.02;;
26540;SDS011;14206;50.202;10.948;2024-03-23T06:19:03;10.77;;;8.73;;
26540;SDS011;14206;50.202;10.948;2024-03-23T06:21:29;12.07;;;9.35;;
26540;SDS011;14206;50.202;10.948;2024-03-23T06:23:55;12.18;;;8.85;;
26540;SDS011;14206;50.202;10.948;2024-03-23T06:26:21;12.38;;;9.15;;
26540;SDS011;14206;50.202;10.948;2024-03-23T06:28:47;12.40;;;8.85;;
26540;SDS011;14206;50.202;10.948;2024-03-23T06:31:13;14.77;;;9.35;;
26540;SDS011;14206;50.202;10.948;2024-03-23T06:33:39;11.10;;;9.38;;
26540;SDS011;14206;50.202;10.948;2024-03-23T06:36:09;12.68;;;8.95;;
26540;SDS011;14206;50.202;10.948;2024-03-23T06:38:36;10.57;;;9.00;;
26540;SDS011;14206;50.202;10.948;2024-03-23T06:41:03;10.23;;;8.40;;
26540;SDS011;14206;50.202;10.948;2024-03-23T06:43:30;12.85;;;9.25;;
26540;SDS011;14206;50.202;10.948;2024-03-23T06:45:56;12.77;;;9.27;;
26540;SDS011;14206;50.202;10.948;2024-03-23T06:48:22;14.68;;;10.25;;
26540;SDS011;14206;50.202;10.948;2024-03-23T06:50:48;13.13;;;10.13;;
26540;SDS011;14206;50.202;10.948;2024-03-23T06:53:14;11.63;;;10.00;;
26540;SDS011;14206;50.202;10.948;2024-03-23T06:55:41;13.45;;;10.05;;
26540;SDS011;14206;50.202;10.948;2024-03-23T06:58:07;12.88;;;10.18;;
26540;SDS011;14206;50.202;10.948;2024-03-23T07:00:33;15.75;;;9.80;;
26540;SDS011;14206;50.202;10.948;2024-03-23T07:03:02;14.57;;;9.07;;
26540;SDS011;14206;50.202;10.948;2024-03-23T07:05:29;9.40;;;7.93;;
26540;SDS011;14206;50.202;10.948;2024-03-23T07:07:55;9.20;;;6.38;;
26540;SDS011;14206;50.202;10.948;2024-03-23T07:10:20;7.72;;;5.05;;
26540;SDS011;14206;50.202;10.948;2024-03-23T07:12:46;7.63;;;5.38;;
26540;SDS011;14206;50.202;10.948;2024-03-23T07:15:12;7.93;;;6.18;;
26540;SDS011;14206;50.202;10.948;2024-03-23T07:17:38;6.82;;;5.50;;
26540;SDS011;14206;50.202;10.948;2024-03-23T07:20:04;9.30;;;6.43;;
26540;SDS011;14206;50.202;10.948;2024-03-23T07:22:38;8.88;;;5.80;;
26540;SDS011;14206;50.202;10.948;2024-03-23T07:25:07;6.35;;;5.07;;
26540;SDS011;14206;50.202;10.948;2024-03-23T07:27:33;7.72;;;6.05;;
26540;SDS011;14206;50.202;10.948;2024-03-23T07:29:59;8.15;;;6.05;;
26540;SDS011;14206;50.202;10.948;2024-03-23T07:32:26;8.43;;;5.30;;
26540;SDS011;14206;50.202;10.948;2024-03-23T07:34:52;5.50;;;4.55;;
26540;SDS011;14206;50.202;10.948;2024-03-23T07:37:18;4.85;;;3.60;;
26540;SDS011;14206;50.202;10.948;2024-03-23T07:39:44;3.60;;;3.22;;
26540;SDS011;14206;50.202;10.948;2024-03-23T07:42:10;3.83;;;3.05;;
26540;SDS011;14206;50.202;10.948;2024-03-23T07:44:36;3.90;;;3.50;;
26540;SDS011;14206;50.202;10.948;2024-03-23T07:47:03;4.53;;;3.30;;
26540;SDS011;14206;50.202;10.948;2024-03-23T07:49:29;4.57;;;3.05;;
26540;SDS011;14206;50.202;10.948;2024-03-23T07:51:55;2.92;;;2.63;;
26540;SDS011;14206;50.202;10.948;2024-03-23T07:54:20;3.45;;;2.53;;
26540;SDS011;14206;50.202;10.948;2024-03-23T07:56:46;2.38;;;1.83;;
26540;SDS011;14206;50.202;10.948;2024-03-23T07:59:12;1.70;;;1.60;;
26540;SDS011;14206;50.202;10.948;2024-03-23T08:01:38;2.28;;;1.98;;
26540;SDS011;14206;50.202;10.948;2024-03-23T08:04:05;1.58;;;1.30;;
26540;SDS011;14206;50.202;10.948;2024-03-23T08:06:31;1.65;;;1.55;;
26540;SDS011;14206;50.202;10.948;2024-03-23T08:08:57;1.30;;;1.20;;
26540;SDS011;14206;50.202;10.948;2024-03-23T08:11:30;1.10;;;1.00;;
26540;SDS011;14206;50.202;10.948;2024-03-23T08:13:57;0.90;;;0.90;;
26540;SDS011;14206;50.202;10.948;2024-03-23T08:16:23;0.80;;;0.80;;
26540;SDS011;14206;50.202;10.948;2024-03-23T08:18:53;0.60;;;0.60;;
26540;SDS011;14206;50.202;10.948;2024-03-23T08:21:20;0.70;;;0.70;;
26540;SDS011;14206;50.202;10.948;2024-03-23T08:23:46;0.50;;;0.50;;
26540;SDS011;14206;50.202;10.948;2024-03-23T08:26:13;0.50;;;0.30;;
26540;SDS011;14206;50.202;10.948;2024-03-23T08:28:41;1.02;;;0.50;;
26540;SDS011;14206;50.202;10.948;2024-03-23T08:31:08;0.70;;;0.30;;
26540;SDS011;14206;50.202;10.948;2024-03-23T08:33:35;0.20;;;0.20;;
26540;SDS011;14206;50.202;10.948;2024-03-23T08:36:02;0.20;;;0.20;;
26540;SDS011;14206;50.202;10.948;2024-03-23T08:38:29;0.20;;;0.20;;
26540;SDS011;14206;50.202;10.948;2024-03-23T08:41:10;0.22;;;0.20;;
26540;SDS011;14206;50.202;10.948;2024-03-23T08:43:37;0.28;;;0.28;;
26540;SDS011;14206;50.202;10.948;2024-03-23T08:48:34;0.43;;;0.35;;
26540;SDS011;14206;50.202;10.948;2024-03-23T08:51:04;0.10;;;0.10;;
26540;SDS011;14206;50.202;10.948;2024-03-23T08:53:31;0.32;;;0.30;;
26540;SDS011;14206;50.202;10.948;2024-03-23T08:55:59;0.50;;;0.20;;
26540;SDS011;14206;50.202;10.948;2024-03-23T08:58:26;0.10;;;0.08;;
26540;SDS011;14206;50.202;10.948;2024-03-23T09:00:54;0.20;;;0.10;;
26540;SDS011;14206;50.202;10.948;2024-03-23T09:03:25;0.10;;;0.10;;
26540;SDS011;14206;50.202;10.948;2024-03-23T09:05:51;0.13;;;0.13;;
26540;SDS011;14206;50.202;10.948;2024-03-23T09:08:17;0.15;;;0.13;;
26540;SDS011;14206;50.202;10.948;2024-03-23T09:10:44;0.10;;;0.10;;
26540;SDS011;14206;50.202;10.948;2024-03-23T09:13:10;0.10;;;0.10;;
26540;SDS011;14206;50.202;10.948;2024-03-23T09:15:36;0.10;;;0.10;;
26540;SDS011;14206;50.202;10.948;2024-03-23T09:18:10;0.20;;;0.20;;
26540;SDS011;14206;50.202;10.948;2024-03-23T09:20:36;0.10;;;0.10;;
26540;SDS011;14206;50.202;10.948;2024-03-23T09:23:02;0.22;;;0.20;;
26540;SDS011;14206;50.202;10.948;2024-03-23T09:25:28;0.20;;;0.20;;
26540;SDS011;14206;50.202;10.948;2024-03-23T09:27:54;0.10;;;0.10;;
26540;SDS011;14206;50.202;10.948;2024-03-23T09:30:19;0.10;;;0.10;;
26540;SDS011;14206;50.202;10.948;2024-03-23T09:32:45;0.10;;;0.10;;
26540;SDS011;14206;50.202;10.948;2024-03-23T09:35:12;0.10;;;0.10;;
26540;SDS011;14206;50.202;10.948;2024-03-23T09:37:38;0.38;;;0.13;;
26540;SDS011;14206;50.202;10.948;2024-03-23T09:40:10;0.10;;;0.10;;
26540;SDS011;14206;50.202;10.948;2024-03-23T09:42:37;0.20;;;0.13;;
26540;SDS011;14206;50.202;10.948;2024-03-23T09:45:06;0.10;;;0.10;;
26540;SDS011;14206;50.202;10.948;2024-03-23T09:47:42;0.38;;;0.17;;
26540;SDS011;14206;50.202;10.948;2024-03-23T09:50:08;0.20;;;0.17;;
26540;SDS011;14206;50.202;10.948;2024-03-23T09:52:35;0.45;;;0.30;;
26540;SDS011;14206;50.202;10.948;2024-03-23T09:55:00;0.20;;;0.20;;
26540;SDS011;14206;50.202;10.948;2024-03-23T09:57:26;0.20;;;0.20;;
26540;SDS011;14206;50.202;10.948;2024-03-23T09:59:52;0.30;;;0.30;;
26540;SDS011;14206;50.202;10.948;2024-03-23T10:02:20;0.20;;;0.20;;
26540;SDS011;14206;50.202;10.948;2024-03-23T10:04:46;0.73;;;0.40;;
26540;SDS011;14206;50.202;10.948;2024-03-23T10:09:39;0.93;;;0.40;;
26540;SDS011;14206;50.202;10.948;2024-03-23T10:12:12;1.00;;;0.60;;
26540;SDS011;14206;50.202;10.948;2024-03-23T10:14:39;0.73;;;0.50;;
26540;SDS011;14206;50.202;10.948;2024-03-23T10:17:19;1.10;;;0.50;;
26540;SDS011;14206;50.202;10.948;2024-03-23T10:19:50;1.38;;;0.60;;
26540;SDS011;14206;50.202;10.948;2024-03-23T10:22:21;2.42;;;0.80;;
26540;SDS011;14206;50.202;10.948;2024-03-23T10:24:48;0.93;;;0.57;;
26540;SDS011;14206;50.202;10.948;2024-03-23T10:27:15;0.98;;;0.60;;
26540;SDS011;14206;50.202;10.948;2024-03-23T10:29:43;1.50;;;0.80;;
26540;SDS011;14206;50.202;10.948;2024-03-23T10:32:16;1.33;;;0.80;;
26540;SDS011;14206;50.202;10.948;2024-03-23T10:34:43;1.92;;;0.90;;
26540;SDS011;14206;50.202;10.948;2024-03-23T10:37:09;2.53;;;0.90;;
26540;SDS011;14206;50.202;10.948;2024-03-23T10:39:36;3.80;;;1.23;;
26540;SDS011;14206;50.202;10.948;2024-03-23T10:42:09;2.97;;;1.10;;
26540;SDS011;14206;50.202;10.948;2024-03-23T10:44:36;2.28;;;1.10;;
26540;SDS011;14206;50.202;10.948;2024-03-23T10:47:03;1.83;;;0.90;;
26540;SDS011;14206;50.202;10.948;2024-03-23T10:49:33;1.75;;;1.02;;
26540;SDS011;14206;50.202;10.948;2024-03-23T10:52:04;4.18;;;1.10;;
26540;SDS011;14206;50.202;10.948;2024-03-23T10:54:31;2.17;;;1.10;;
26540;SDS011;14206;50.202;10.948;2024-03-23T10:57:02;3.03;;;1.40;;
26540;SDS011;14206;50.202;10.948;2024-03-23T10:59:35;4.07;;;1.60;;
26540;SDS011;14206;50.202;10.948;2024-03-23T11:02:03;3.28;;;1.27;;
26540;SDS011;14206;50.202;10.948;2024-03-23T11:04:33;4.90;;;1.63;;
26540;SDS011;14206;50.202;10.948;2024-03-23T11:09:48;3.13;;;1.30;;
26540;SDS011;14206;50.202;10.948;2024-03-23T11:14:48;3.58;;;1.33;;
26540;SDS011;14206;50.202;10.948;2024-03-23T11:17:19;1.60;;;0.95;;
26540;SDS011;14206;50.202;10.948;2024-03-23T11:19:56;3.88;;;1.40;;
26540;SDS011;14206;50.202;10.948;2024-03-23T11:25:12;4.65;;;1.63;;
26540;SDS011;14206;50.202;10.948;2024-03-23T11:27:38;4.10;;;1.77;;
26540;SDS011;14206;50.202;10.948;2024-03-23T11:30:17;3.75;;;1.60;;
26540;SDS011;14206;50.202;10.948;2024-03-23T11:32:48;3.75;;;1.60;;
26540;SDS011;14206;50.202;10.948;2024-03-23T11:35:24;4.25;;;1.83;;
26540;SDS011;14206;50.202;10.948;2024-03-23T11:38:07;4.35;;;2.10;;
26540;SDS011;14206;50.202;10.948;2024-03-23T11:40:35;5.68;;;1.98;;
26540;SDS011;14206;50.202;10.948;2024-03-23T11:43:04;2.42;;;1.60;;
26540;SDS011;14206;50.202;10.948;2024-03-23T11:45:38;4.18;;;2.13;;
26540;SDS011;14206;50.202;10.948;2024-03-23T11:48:09;3.08;;;1.75;;
26540;SDS011;14206;50.202;10.948;2024-03-23T11:50:40;3.50;;;2.05;;
26540;SDS011;14206;50.202;10.948;2024-03-23T11:55:40;2.97;;;1.90;;
26540;SDS011;14206;50.202;10.948;2024-03-23T11:58:12;2.95;;;1.50;;
26540;SDS011;14206;50.202;10.948;2024-03-23T12:00:38;4.70;;;1.63;;
26540;SDS011;14206;50.202;10.948;2024-03-23T12:03:05;3.33;;;1.30;;
26540;SDS011;14206;50.202;10.948;2024-03-23T12:05:31;2.75;;;1.50;;
26540;SDS011;14206;50.202;10.948;2024-03-23T12:10:48;3.88;;;1.92;;
26540;SDS011;14206;50.202;10.948;2024-03-23T12:13:16;5.10;;;2.42;;
26540;SDS011;14206;50.202;10.948;2024-03-23T12:15:49;3.67;;;2.30;;
26540;SDS011;14206;50.202;10.948;2024-03-23T12:18:16;2.95;;;1.55;;
26540;SDS011;14206;50.202;10.948;2024-03-23T12:20:42;4.18;;;2.03;;
26540;SDS011;14206;50.202;10.948;2024-03-23T12:23:12;2.47;;;1.70;;
26540;SDS011;14206;50.202;10.948;2024-03-23T12:25:41;3.05;;;1.60;;
26540;SDS011;14206;50.202;10.948;2024-03-23T12:28:07;4.47;;;1.70;;
26540;SDS011;14206;50.202;10.948;2024-03-23T12:30:34;3.92;;;1.88;;
26540;SDS011;14206;50.202;10.948;2024-03-23T12:33:06;2.33;;;1.25;;
26540;SDS011;14206;50.202;10.948;2024-03-23T12:35:32;2.63;;;1.50;;
26540;SDS011;14206;50.202;10.948;2024-03-23T12:37:58;3.65;;;1.40;;
26540;SDS011;14206;50.202;10.948;2024-03-23T12:40:24;2.42;;;1.60;;
26540;SDS011;14206;50.202;10.948;2024-03-23T12:42:50;1.42;;;1.10;;
26540;SDS011;14206;50.202;10.948;2024-03-23T12:45:16;2.85;;;1.60;;
26540;SDS011;14206;50.202;10.948;2024-03-23T12:47:42;4.10;;;1.80;;
26540;SDS011;14206;50.202;10.948;2024-03-23T12:50:08;2.35;;;1.30;;
26540;SDS011;14206;50.202;10.948;2024-03-23T12:52:35;2.35;;;1.05;;
26540;SDS011;14206;50.202;10.948;2024-03-23T12:55:02;3.33;;;1.30;;
26540;SDS011;14206;50.202;10.948;2024-03-23T12:57:29;3.42;;;1.58;;
26540;SDS011;14206;50.202;10.948;2024-03-23T12:59:55;2.13;;;1.50;;
26540;SDS011;14206;50.202;10.948;2024-03-23T13:02:21;4.78;;;1.63;;
26540;SDS011;14206;50.202;10.948;2024-03-23T13:04:51;4.35;;;1.85;;
26540;SDS011;14206;50.202;10.948;2024-03-23T13:07:18;3.50;;;1.55;;
26540;SDS011;14206;50.202;10.948;2024-03-23T13:09:45;2.03;;;1.40;;
26540;SDS011;14206;50.202;10.948;2024-03-23T13:12:11;3.40;;;1.38;;
26540;SDS011;14206;50.202;10.948;2024-03-23T13:14:38;1.73;;;1.00;;
26540;SDS011;14206;50.202;10.948;2024-03-23T13:17:04;2.90;;;1.20;;
26540;SDS011;14206;50.202;10.948;2024-03-23T13:19:31;2.30;;;1.20;;
26540;SDS011;14206;50.202;10.948;2024-03-23T13:21:58;2.40;;;1.35;;
26540;SDS011;14206;50.202;10.948;2024-03-23T13:24:25;2.83;;;1.30;;
26540;SDS011;14206;50.202;10.948;2024-03-23T13:26:52;1.85;;;1.20;;
26540;SDS011;14206;50.202;10.948;2024-03-23T13:29:19;4.32;;;1.23;;
26540;SDS011;14206;50.202;10.948;2024-03-23T13:31:46;2.03;;;1.27;;
26540;SDS011;14206;50.202;10.948;2024-03-23T13:34:12;2.15;;;1.25;;
26540;SDS011;14206;50.202;10.948;2024-03-23T13:36:42;2.53;;;1.30;;
26540;SDS011;14206;50.202;10.948;2024-03-23T13:39:09;3.33;;;1.27;;
26540;SDS011;14206;50.202;10.948;2024-03-23T13:41:43;5.55;;;1.85;;
26540;SDS011;14206;50.202;10.948;2024-03-23T13:44:13;2.80;;;1.63;;
26540;SDS011;14206;50.202;10.948;2024-03-23T13:46:42;4.20;;;1.75;;
26540;SDS011;14206;50.202;10.948;2024-03-23T13:49:30;3.13;;;1.48;;
26540;SDS011;14206;50.202;10.948;2024-03-23T13:51:55;4.47;;;1.75;;
26540;SDS011;14206;50.202;10.948;2024-03-23T13:54:23;2.50;;;1.35;;
26540;SDS011;14206;50.202;10.948;2024-03-23T13:56:51;5.72;;;1.70;;
26540;SDS011;14206;50.202;10.948;2024-03-23T13:59:18;2.25;;;1.30;;
26540;SDS011;14206;50.202;10.948;2024-03-23T14:01:44;1.25;;;0.95;;
26540;SDS011;14206;50.202;10.948;2024-03-23T14:04:11;3.53;;;1.42;;
26540;SDS011;14206;50.202;10.948;2024-03-23T14:06:38;2.95;;;1.20;;
26540;SDS011;14206;50.202;10.948;2024-03-23T14:09:04;3.17;;;1.35;;
26540;SDS011;14206;50.202;10.948;2024-03-23T14:11:30;2.08;;;1.30;;
26540;SDS011;14206;50.202;10.948;2024-03-23T14:13:56;6.25;;;1.77;;
26540;SDS011;14206;50.202;10.948;2024-03-23T14:16:22;3.40;;;1.60;;
26540;SDS011;14206;50.202;10.948;2024-03-23T14:18:48;6.18;;;2.03;;
26540;SDS011;14206;50.202;10.948;2024-03-23T14:21:14;3.17;;;1.50;;
26540;SDS011;14206;50.202;10.948;2024-03-23T14:23:40;4.15;;;1.80;;
26540;SDS011;14206;50.202;10.948;2024-03-23T14:26:08;2.17;;;1.25;;
26540;SDS011;14206;50.202;10.948;2024-03-23T14:28:34;3.42;;;1.30;;
26540;SDS011;14206;50.202;10.948;2024-03-23T14:31:00;3.78;;;1.17;;
26540;SDS011;14206;50.202;10.948;2024-03-23T14:33:26;1.33;;;0.93;;
26540;SDS011;14206;50.202;10.948;2024-03-23T14:35:53;2.15;;;1.08;;
26540;SDS011;14206;50.202;10.948;2024-03-23T14:38:24;2.10;;;1.10;;
26540;SDS011;14206;50.202;10.948;2024-03-23T14:40:51;1.77;;;1.13;;
26540;SDS011;14206;50.202;10.948;2024-03-23T14:43:18;1.73;;;1.00;;
26540;SDS011;14206;50.202;10.948;2024-03-23T14:48:40;1.58;;;1.20;;
26540;SDS011;14206;50.202;10.948;2024-03-23T14:51:07;2.38;;;1.20;;
26540;SDS011;14206;50.202;10.948;2024-03-23T14:53:34;3.00;;;1.40;;
26540;SDS011;14206;50.202;10.948;2024-03-23T14:56:02;3.03;;;1.27;;
26540;SDS011;14206;50.202;10.948;2024-03-23T14:58:28;2.67;;;1.40;;
26540;SDS011;14206;50.202;10.948;2024-03-23T15:01:07;1.85;;;1.20;;
26540;SDS011;14206;50.202;10.948;2024-03-23T15:03:37;3.67;;;1.23;;
26540;SDS011;14206;50.202;10.948;2024-03-23T15:06:05;2.47;;;1.20;;
26540;SDS011;14206;50.202;10.948;2024-03-23T15:08:31;1.88;;;1.00;;
26540;SDS011;14206;50.202;10.948;2024-03-23T15:11:00;2.20;;;1.00;;
26540;SDS011;14206;50.202;10.948;2024-03-23T15:13:34;1.48;;;0.75;;
26540;SDS011;14206;50.202;10.948;2024-03-23T15:16:01;2.95;;;1.23;;
26540;SDS011;14206;50.202;10.948;2024-03-23T15:18:29;2.65;;;1.00;;
26540;SDS011;14206;50.202;10.948;2024-03-23T15:20:56;2.42;;;1.20;;
26540;SDS011;14206;50.202;10.948;2024-03-23T15:23:22;2.15;;;0.90;;
26540;SDS011;14206;50.202;10.948;2024-03-23T15:25:56;1.42;;;0.82;;
26540;SDS011;14206;50.202;10.948;2024-03-23T15:28:22;0.85;;;0.85;;
26540;SDS011;14206;50.202;10.948;2024-03-23T15:30:48;2.10;;;1.20;;
26540;SDS011;14206;50.202;10.948;2024-03-23T15:33:14;3.78;;;1.42;;
26540;SDS011;14206;50.202;10.948;2024-03-23T15:35:41;1.20;;;0.70;;
26540;SDS011;14206;50.202;10.948;2024-03-23T15:38:07;1.08;;;0.73;;
26540;SDS011;14206;50.202;10.948;2024-03-23T15:40:35;3.58;;;1.20;;
26540;SDS011;14206;50.202;10.948;2024-03-23T15:43:01;1.88;;;0.90;;
26540;SDS011;14206;50.202;10.948;2024-03-23T15:45:26;0.90;;;0.63;;
26540;SDS011;14206;50.202;10.948;2024-03-23T15:47:52;2.40;;;0.70;;
26540;SDS011;14206;50.202;10.948;2024-03-23T15:50:18;1.83;;;0.90;;